Trois-Rivieres, Canada
Current Conditions -  °F | °C
As of 1:00 AM on Sunday 23 Nov 2014 (Local Time) from CYRQ Reporting Station
Haze Haze  
Wind Chill: 26°   Ceiling: 300
Heat Index: 34°   Visibility: 0.62mi
Dew Point: 34°   Wind: 10mph
Humidity: 100%   Direction: 200°SSW
Pressure: 29.87"   Gusts: NA
Location:  46.34°N, 72.55°W
Report Text: CYRQ 230600Z AUTO 20009KT 5/8SM BR VV003 01/01 A2987 RMK SLP116
Loading
Personal Weather Stations






























Interactive Weather Map New forecast layout! Learn more

10-Day Weather Forecast

Advertisements
Track Severe Weather on mobile